Time;durP1;ratioP1;P1;durP2;ratioP2;P2;SDS_P1;SDS_P2;PMS_P1;PMS_P2;Temp;Humidity;BMP_temperature;BMP_pressure;BME280_temperature;BME280_humidity;BME280_pressure;Samples;Min_cycle;Max_cycle;Signal;HPM_P1;HPM_P2
2023/02/18 00:01:58;;;;;;;18.03;14.40;;;12.90;99.90;;;;;;5017657;28;20536;-80
2023/02/18 00:04:29;;;;;;;7.00;6.37;;;12.90;99.90;;;;;;5009251;28;20792;-81
2023/02/18 00:06:56;;;;;;;6.60;6.00;;;12.90;99.90;;;;;;5013633;28;20478;-82
2023/02/18 00:09:25;;;;;;;6.37;5.77;;;13.00;99.90;;;;;;5017237;28;20807;-78
2023/02/18 00:11:57;;;;;;;7.00;6.10;;;12.90;99.90;;;;;;5016691;28;20537;-80
2023/02/18 00:14:24;;;;;;;5.43;4.93;;;13.00;99.90;;;;;;5018872;28;20466;-80
2023/02/18 00:16:53;;;;;;;7.20;6.43;;;12.90;99.90;;;;;;5020809;28;20442;-79
2023/02/18 00:19:19;;;;;;;7.20;6.50;;;12.90;99.90;;;;;;5011125;28;20465;-82
2023/02/18 00:21:49;;;;;;;7.60;5.70;;;12.90;99.90;;;;;;4990405;28;20466;-80
2023/02/18 00:24:18;;;;;;;6.37;5.77;;;12.90;99.90;;;;;;4998140;28;20489;-82
2023/02/18 00:26:52;;;;;;;6.87;5.17;;;12.80;99.90;;;;;;4997722;28;20489;-81
2023/02/18 00:29:20;;;;;;;6.10;5.50;;;12.90;99.90;;;;;;5002185;28;20962;-81
2023/02/18 00:31:46;;;;;;;6.90;5.83;;;12.90;99.90;;;;;;5017443;28;20470;-80
2023/02/18 00:34:13;;;;;;;8.37;6.43;;;12.90;99.90;;;;;;5013572;28;20501;-82
2023/02/18 00:36:43;;;;;;;6.20;5.50;;;12.90;99.90;;;;;;5001743;28;20451;-82
2023/02/18 00:39:13;;;;;;;5.77;4.90;;;12.80;99.90;;;;;;5017577;28;20473;-81
2023/02/18 00:41:40;;;;;;;6.80;6.07;;;12.90;99.90;;;;;;5018548;28;20514;-81
2023/02/18 00:44:10;;;;;;;6.27;5.67;;;12.80;99.90;;;;;;5029832;28;20535;-82
2023/02/18 00:46:37;;;;;;;5.73;5.00;;;12.80;99.90;;;;;;5030545;28;20539;-80
2023/02/18 00:49:05;;;;;;;6.90;5.77;;;12.80;99.90;;;;;;5031784;28;20917;-81
2023/02/18 00:51:32;;;;;;;6.20;5.60;;;12.80;99.90;;;;;;5004984;28;20528;-81
2023/02/18 00:53:59;;;;;;;8.90;5.20;;;12.80;99.90;;;;;;5008324;28;20524;-80
2023/02/18 00:56:26;;;;;;;7.23;5.60;;;12.90;99.90;;;;;;5017242;28;20457;-81
2023/02/18 00:58:53;;;;;;;6.20;5.60;;;12.80;99.90;;;;;;5014084;28;20457;-81
2023/02/18 01:01:20;;;;;;;6.37;5.77;;;12.80;99.90;;;;;;4995667;28;20482;-81
2023/02/18 01:03:49;;;;;;;6.07;5.00;;;12.80;99.90;;;;;;4993646;28;20461;-81
2023/02/18 01:06:16;;;;;;;6.50;5.50;;;12.80;99.90;;;;;;5010407;28;20458;-82
2023/02/18 01:08:43;;;;;;;13.47;10.30;;;12.80;99.90;;;;;;5007543;28;20485;-82
2023/02/18 01:11:11;;;;;;;6.10;5.30;;;12.80;99.90;;;;;;5013572;28;21159;-81
2023/02/18 01:13:40;;;;;;;6.07;5.20;;;12.80;99.90;;;;;;5018688;28;20484;-80
2023/02/18 01:16:10;;;;;;;5.33;4.77;;;12.80;99.90;;;;;;5018495;28;20467;-81
2023/02/18 01:18:38;;;;;;;7.43;5.30;;;13.10;99.90;;;;;;5007281;28;20525;-80
2023/02/18 01:21:07;;;;;;;6.47;5.57;;;13.10;99.90;;;;;;5004406;28;20456;-83
2023/02/18 01:23:38;;;;;;;5.20;4.70;;;13.10;99.90;;;;;;5005461;28;20474;-82
2023/02/18 01:26:11;;;;;;;5.80;5.30;;;13.00;99.90;;;;;;5019413;28;20488;-82
2023/02/18 01:28:40;;;;;;;5.80;5.30;;;13.00;99.90;;;;;;5014959;28;20477;-81
2023/02/18 01:31:11;;;;;;;5.70;5.10;;;13.00;99.90;;;;;;5023183;28;20457;-82
2023/02/18 01:33:39;;;;;;;7.87;5.77;;;12.90;99.90;;;;;;5004253;28;20470;-82
2023/02/18 01:36:06;;;;;;;6.57;5.53;;;12.90;99.90;;;;;;5003421;28;20462;-80
2023/02/18 01:38:34;;;;;;;6.03;5.43;;;13.20;99.90;;;;;;5020063;28;20473;-82
2023/02/18 01:41:01;;;;;;;6.70;5.67;;;13.10;99.90;;;;;;5021633;28;20505;-82
2023/02/18 01:43:28;;;;;;;6.27;5.63;;;13.30;99.90;;;;;;5004761;28;20469;-81
2023/02/18 01:46:25;;;;;;;6.10;5.50;;;13.10;99.90;;;;;;5021414;28;20655;-82
2023/02/18 01:48:55;;;;;;;6.00;5.40;;;12.90;99.90;;;;;;5017072;28;20489;-81
2023/02/18 01:51:34;;;;;;;7.20;6.30;;;12.90;99.90;;;;;;5025137;28;20446;-81
2023/02/18 01:54:09;;;;;;;5.30;4.80;;;12.90;99.90;;;;;;4999633;28;21078;-81
2023/02/18 01:56:41;;;;;;;6.47;5.83;;;12.80;99.90;;;;;;5015830;28;20465;-82
2023/02/18 01:59:13;;;;;;;6.57;4.90;;;12.90;99.90;;;;;;5004122;28;20442;-82
2023/02/18 02:01:42;;;;;;;5.43;4.90;;;12.90;99.90;;;;;;5018007;28;20542;-82
2023/02/18 02:04:09;;;;;;;5.80;5.30;;;12.80;99.90;;;;;;5015129;28;20463;-82
2023/02/18 02:06:36;;;;;;;5.70;5.00;;;12.80;99.90;;;;;;5020328;28;21231;-80
2023/02/18 02:09:07;;;;;;;6.67;6.07;;;12.70;99.90;;;;;;5019268;28;20489;-82
2023/02/18 02:12:10;;;;;;;6.63;6.03;;;12.90;99.90;;;;;;5001070;28;20447;-79
2023/02/18 02:15:07;;;;;;;6.97;6.27;;;13.20;99.90;;;;;;5021721;28;20504;-83
2023/02/18 02:17:59;;;;;;;7.30;6.60;;;13.00;99.90;;;;;;5024193;28;20465;-79
2023/02/18 02:20:57;;;;;;;6.20;5.53;;;13.10;99.90;;;;;;5023209;28;20435;-82
2023/02/18 02:23:42;;;;;;;6.47;5.20;;;12.90;99.90;;;;;;5020321;28;20466;-83
2023/02/18 02:26:26;;;;;;;8.10;6.70;;;12.80;99.90;;;;;;5016908;28;20474;-81
2023/02/18 02:29:14;;;;;;;6.67;6.03;;;12.90;99.90;;;;;;5001946;28;20585;-80
2023/02/18 02:31:51;;;;;;;6.53;5.40;;;12.90;99.90;;;;;;5014227;28;20490;-81
2023/02/18 02:34:49;;;;;;;5.60;5.10;;;12.90;99.90;;;;;;5020274;28;20470;-82
2023/02/18 02:37:45;;;;;;;5.50;5.00;;;13.10;99.90;;;;;;5001401;28;20458;-81
2023/02/18 02:40:31;;;;;;;4.97;4.50;;;13.00;99.90;;;;;;4990860;28;20512;-81
2023/02/18 02:43:01;;;;;;;5.50;4.90;;;12.90;99.90;;;;;;5016050;28;20478;-82
2023/02/18 02:45:49;;;;;;;4.73;4.33;;;12.90;99.90;;;;;;5015076;28;20455;-82
2023/02/18 02:48:36;;;;;;;4.50;4.10;;;13.00;99.90;;;;;;5008768;28;20533;-81
2023/02/18 02:51:32;;;;;;;4.00;3.70;;;12.90;99.90;;;;;;4998969;28;20541;-82
2023/02/18 02:54:16;;;;;;;4.60;4.07;;;12.80;99.90;;;;;;4992970;28;20454;-80
2023/02/18 02:56:44;;;;;;;4.03;3.63;;;12.80;99.90;;;;;;4999402;28;20889;-81
2023/02/18 02:59:22;;;;;;;4.50;4.10;;;12.70;99.90;;;;;;5011859;28;20473;-80
2023/02/18 03:02:14;;;;;;;3.50;3.20;;;12.80;99.90;;;;;;5010711;28;20524;-80
2023/02/18 03:04:54;;;;;;;4.17;2.90;;;12.80;99.90;;;;;;5012074;28;20455;-81
2023/02/18 03:07:54;;;;;;;3.40;3.10;;;12.80;99.90;;;;;;5001601;28;20450;-80
2023/02/18 03:10:59;;;;;;;2.63;2.43;;;12.80;99.90;;;;;;5016567;28;20454;-81
2023/02/18 03:13:48;;;;;;;2.53;2.33;;;12.80;99.90;;;;;;4967380;28;21012;-81
2023/02/18 03:16:30;;;;;;;2.33;2.13;;;12.80;99.90;;;;;;5014604;28;20478;-81
2023/02/18 03:19:00;;;;;;;2.40;2.20;;;12.70;99.90;;;;;;5015740;28;20877;-80
2023/02/18 03:21:33;;;;;;;1.70;1.60;;;12.70;99.90;;;;;;4995688;28;20545;-81
2023/02/18 03:24:06;;;;;;;2.30;2.10;;;12.70;99.90;;;;;;5014320;28;20575;-81
2023/02/18 03:26:38;;;;;;;2.63;2.13;;;12.70;99.90;;;;;;5019745;28;20458;-82
2023/02/18 03:29:07;;;;;;;1.63;1.53;;;12.70;99.90;;;;;;5015706;28;20493;-82
2023/02/18 03:31:39;;;;;;;1.50;1.40;;;12.60;99.90;;;;;;5008325;28;20565;-81
2023/02/18 03:34:13;;;;;;;1.50;1.40;;;12.60;99.90;;;;;;5016021;28;20430;-81
2023/02/18 03:36:41;;;;;;;1.50;1.40;;;12.60;99.90;;;;;;5018822;28;20450;-81
2023/02/18 03:39:12;;;;;;;2.40;1.50;;;12.60;99.90;;;;;;5010821;28;20673;-81
2023/02/18 03:41:40;;;;;;;1.67;1.57;;;12.60;99.90;;;;;;5014719;28;20517;-79
2023/02/18 03:44:08;;;;;;;1.10;1.10;;;12.60;99.90;;;;;;4997187;28;20463;-81
2023/02/18 03:46:38;;;;;;;1.30;1.20;;;12.60;99.90;;;;;;5004278;28;20470;-80
2023/02/18 03:49:05;;;;;;;2.40;1.10;;;12.50;99.90;;;;;;5002083;28;20566;-82
2023/02/18 03:51:32;;;;;;;1.10;1.10;;;12.50;99.90;;;;;;5018485;28;20534;-81
2023/02/18 03:53:59;;;;;;;1.60;1.50;;;12.50;99.90;;;;;;5026219;28;22012;-80
2023/02/18 03:56:25;;;;;;;1.00;1.00;;;12.50;99.90;;;;;;5021868;28;20482;-81
2023/02/18 03:58:52;;;;;;;0.93;0.93;;;12.50;99.90;;;;;;5016216;28;20462;-83
2023/02/18 04:01:19;;;;;;;1.60;1.23;;;12.40;99.90;;;;;;5019113;28;20466;-82
2023/02/18 04:03:45;;;;;;;1.10;1.00;;;12.40;99.90;;;;;;5020277;28;21048;-80
2023/02/18 04:06:13;;;;;;;1.80;1.23;;;12.40;99.90;;;;;;5014294;28;20446;-80
2023/02/18 04:08:43;;;;;;;1.07;0.97;;;12.50;99.90;;;;;;5016972;28;21032;-82
2023/02/18 04:11:10;;;;;;;0.80;0.80;;;12.50;99.90;;;;;;5019704;28;20450;-83
2023/02/18 04:13:37;;;;;;;1.20;1.10;;;12.40;99.90;;;;;;5024281;28;20561;-82
2023/02/18 04:16:04;;;;;;;1.03;0.93;;;12.50;99.90;;;;;;5028478;28;20461;-81
2023/02/18 04:18:32;;;;;;;1.00;0.90;;;12.50;99.90;;;;;;5034016;28;20454;-80
2023/02/18 04:20:58;;;;;;;1.00;0.80;;;12.60;99.90;;;;;;5033033;28;20446;-81
2023/02/18 04:23:25;;;;;;;0.70;0.70;;;12.50;99.90;;;;;;5013226;28;20506;-80
2023/02/18 04:25:52;;;;;;;0.60;0.60;;;12.50;99.90;;;;;;5015841;28;20464;-80
2023/02/18 04:28:19;;;;;;;0.50;0.50;;;12.50;99.90;;;;;;5023851;28;20479;-79
2023/02/18 04:30:47;;;;;;;0.60;0.50;;;12.50;99.90;;;;;;5018893;28;20447;-80
2023/02/18 04:33:14;;;;;;;0.60;0.60;;;12.50;99.90;;;;;;4997498;28;20544;-79
2023/02/18 04:35:41;;;;;;;0.50;0.50;;;12.50;99.90;;;;;;5000801;28;20472;-80
2023/02/18 04:38:09;;;;;;;0.67;0.50;;;12.50;99.90;;;;;;5015909;28;20513;-79
2023/02/18 04:40:36;;;;;;;0.50;0.40;;;12.60;99.90;;;;;;5013189;28;20462;-80
2023/02/18 04:43:05;;;;;;;0.43;0.43;;;12.60;99.90;;;;;;5010937;28;20502;-78
2023/02/18 04:45:32;;;;;;;0.50;0.40;;;12.70;99.90;;;;;;5018648;28;20550;-80
2023/02/18 04:47:59;;;;;;;1.27;0.60;;;12.60;99.90;;;;;;5021097;28;20486;-81
2023/02/18 04:50:26;;;;;;;0.80;0.40;;;12.60;99.90;;;;;;4995993;28;20499;-80
2023/02/18 04:52:53;;;;;;;1.33;0.40;;;12.60;99.90;;;;;;5012623;28;20557;-80
2023/02/18 04:55:19;;;;;;;0.60;0.50;;;12.60;99.90;;;;;;5016448;28;20455;-81
2023/02/18 04:57:46;;;;;;;0.87;0.50;;;12.60;99.90;;;;;;5015799;28;20461;-81
2023/02/18 05:00:15;;;;;;;0.40;0.40;;;12.60;99.90;;;;;;5010292;28;20454;-80
2023/02/18 05:02:43;;;;;;;0.50;0.43;;;12.50;99.90;;;;;;4995628;28;20524;-80
2023/02/18 05:05:10;;;;;;;0.50;0.50;;;12.50;99.90;;;;;;4988359;28;20478;-81
2023/02/18 05:07:37;;;;;;;0.50;0.50;;;12.70;99.90;;;;;;4997909;28;20454;-82
2023/02/18 05:10:05;;;;;;;0.50;0.50;;;12.60;99.90;;;;;;4998053;28;20458;-82
2023/02/18 05:12:34;;;;;;;0.60;0.60;;;12.50;99.90;;;;;;5012149;28;20512;-82
2023/02/18 05:15:01;;;;;;;1.07;0.43;;;12.50;99.90;;;;;;5006837;28;20481;-81
2023/02/18 05:17:28;;;;;;;0.40;0.40;;;12.60;99.90;;;;;;5012689;28;20453;-80
2023/02/18 05:19:55;;;;;;;0.40;0.40;;;12.60;99.90;;;;;;5014993;28;20462;-79
2023/02/18 05:22:22;;;;;;;0.60;0.50;;;12.50;99.90;;;;;;5008853;28;20572;-80
2023/02/18 05:24:48;;;;;;;0.47;0.47;;;12.40;99.90;;;;;;5015548;28;20450;-80
2023/02/18 05:27:15;;;;;;;0.93;0.60;;;12.40;99.90;;;;;;4999650;28;20473;-79
2023/02/18 05:29:42;;;;;;;0.70;0.70;;;12.50;99.90;;;;;;5019029;28;20474;-79
2023/02/18 05:32:08;;;;;;;0.83;0.70;;;12.50;99.90;;;;;;5000636;28;20739;-81
2023/02/18 05:34:35;;;;;;;0.80;0.60;;;12.40;99.90;;;;;;5012504;28;21379;-81
2023/02/18 05:37:02;;;;;;;0.60;0.60;;;12.30;99.90;;;;;;5006946;28;21013;-82
2023/02/18 05:39:29;;;;;;;0.50;0.40;;;12.20;99.90;;;;;;5004143;28;20469;-81
2023/02/18 05:41:58;;;;;;;0.70;0.50;;;12.20;99.90;;;;;;5018493;28;20520;-80
2023/02/18 05:44:32;;;;;;;0.60;0.60;;;12.20;99.90;;;;;;4996046;28;20467;-80
2023/02/18 05:47:05;;;;;;;0.50;0.50;;;12.20;99.90;;;;;;5000078;28;20462;-81
2023/02/18 05:49:33;;;;;;;0.50;0.50;;;12.20;99.90;;;;;;5014024;28;20846;-81
2023/02/18 05:52:00;;;;;;;0.40;0.40;;;12.20;99.90;;;;;;5003340;28;20599;-81
2023/02/18 05:54:27;;;;;;;0.80;0.67;;;12.30;99.90;;;;;;5006782;28;20459;-80
2023/02/18 05:56:54;;;;;;;1.13;1.03;;;12.50;99.90;;;;;;5019927;28;20893;-80
2023/02/18 05:59:21;;;;;;;0.83;0.60;;;12.40;99.90;;;;;;5002235;28;20438;-80
2023/02/18 06:01:48;;;;;;;0.60;0.60;;;12.30;99.90;;;;;;5023949;28;20480;-79
2023/02/18 06:04:17;;;;;;;0.83;0.50;;;12.20;99.90;;;;;;5003212;28;20476;-81
2023/02/18 06:06:45;;;;;;;1.00;0.60;;;12.20;99.90;;;;;;5023833;28;20800;-79
2023/02/18 06:09:12;;;;;;;0.63;0.63;;;12.30;99.90;;;;;;5017410;28;20470;-81
2023/02/18 06:11:39;;;;;;;0.60;0.60;;;12.40;99.90;;;;;;5011861;28;20462;-80
2023/02/18 06:14:06;;;;;;;0.80;0.70;;;12.30;99.90;;;;;;5015329;28;20454;-79
2023/02/18 06:16:35;;;;;;;0.70;0.70;;;12.30;99.90;;;;;;5033704;28;20458;-80
2023/02/18 06:19:02;;;;;;;0.67;0.67;;;12.20;99.90;;;;;;5028105;28;20435;-81
2023/02/18 06:21:29;;;;;;;0.97;0.60;;;12.20;99.90;;;;;;5014717;28;20879;-81
2023/02/18 06:24:00;;;;;;;0.97;0.60;;;12.30;99.90;;;;;;5014562;28;20439;-81
2023/02/18 06:26:29;;;;;;;0.80;0.80;;;12.20;99.90;;;;;;5015366;28;20457;-80
2023/02/18 06:28:56;;;;;;;0.60;0.60;;;12.20;99.90;;;;;;5006921;28;20486;-82
2023/02/18 06:31:26;;;;;;;0.50;0.50;;;12.20;99.90;;;;;;5018116;28;20473;-80
2023/02/18 06:33:59;;;;;;;0.50;0.50;;;12.10;99.90;;;;;;5015350;28;21001;-81
2023/02/18 06:36:26;;;;;;;1.23;0.57;;;12.10;99.90;;;;;;5015761;28;20486;-80
2023/02/18 06:38:58;;;;;;;0.50;0.50;;;12.10;99.90;;;;;;5013913;28;20466;-81
2023/02/18 06:41:28;;;;;;;0.67;0.67;;;12.10;99.90;;;;;;4999600;28;20528;-81
2023/02/18 06:44:01;;;;;;;1.10;0.73;;;12.10;99.90;;;;;;5005611;28;20456;-81
2023/02/18 06:46:30;;;;;;;0.53;0.50;;;12.10;99.90;;;;;;4987865;28;20474;-81
2023/02/18 06:48:59;;;;;;;2.10;0.50;;;12.20;99.90;;;;;;5000984;28;20490;-80
2023/02/18 06:51:26;;;;;;;0.40;0.40;;;12.20;99.90;;;;;;4999692;28;20455;-82
2023/02/18 06:53:58;;;;;;;1.30;0.80;;;12.30;99.90;;;;;;4995767;28;20464;-82
2023/02/18 06:56:25;;;;;;;0.60;0.60;;;12.20;99.90;;;;;;5011615;28;20573;-82
2023/02/18 06:58:57;;;;;;;0.40;0.40;;;12.30;99.90;;;;;;5015458;28;20458;-80
2023/02/18 07:01:27;;;;;;;0.53;0.53;;;12.30;99.90;;;;;;5001571;28;20471;-82
2023/02/18 07:03:55;;;;;;;0.50;0.50;;;12.30;99.90;;;;;;5014504;28;20458;-81
2023/02/18 07:06:25;;;;;;;0.73;0.73;;;12.30;99.90;;;;;;5019737;28;20434;-81
2023/02/18 07:08:51;;;;;;;0.37;0.37;;;12.30;99.90;;;;;;5012989;28;20547;-81
2023/02/18 07:11:18;;;;;;;0.90;0.40;;;12.30;99.90;;;;;;5011865;28;20553;-80
2023/02/18 07:13:48;;;;;;;0.40;0.40;;;12.30;99.90;;;;;;4995448;28;21000;-80
2023/02/18 07:16:15;;;;;;;0.70;0.37;;;12.30;99.90;;;;;;5000080;28;20481;-81
2023/02/18 07:18:42;;;;;;;0.50;0.50;;;12.30;99.90;;;;;;5010566;28;20494;-80
2023/02/18 07:21:10;;;;;;;0.67;0.50;;;12.30;99.90;;;;;;5015860;28;20458;-81
2023/02/18 07:23:40;;;;;;;0.47;0.40;;;12.40;99.90;;;;;;4999324;28;20482;-82
2023/02/18 07:26:19;;;;;;;0.50;0.50;;;12.30;99.90;;;;;;5012075;28;20490;-82
2023/02/18 07:28:51;;;;;;;0.57;0.57;;;12.30;99.90;;;;;;4999858;28;20571;-82
2023/02/18 07:31:21;;;;;;;0.63;0.63;;;12.40;99.90;;;;;;4998878;28;20477;-80
2023/02/18 07:33:48;;;;;;;0.50;0.50;;;12.40;99.90;;;;;;5012633;28;20561;-82
2023/02/18 07:36:17;;;;;;;0.50;0.50;;;12.40;99.90;;;;;;5011288;28;20459;-82
2023/02/18 07:38:47;;;;;;;0.67;0.67;;;12.40;99.90;;;;;;5016388;28;20472;-82
2023/02/18 07:41:22;;;;;;;0.53;0.53;;;12.40;99.90;;;;;;4997616;28;20857;-81
2023/02/18 07:43:50;;;;;;;0.67;0.60;;;12.50;99.90;;;;;;4995136;28;21003;-81
2023/02/18 07:46:17;;;;;;;0.40;0.40;;;12.50;99.90;;;;;;5014555;28;20471;-81
2023/02/18 07:48:58;;;;;;;0.60;0.60;;;12.80;99.90;;;;;;5012413;28;20486;-82
2023/02/18 07:51:30;;;;;;;0.50;0.50;;;12.80;99.90;;;;;;4999637;28;20458;-83
2023/02/18 07:53:59;;;;;;;0.40;0.40;;;12.70;99.90;;;;;;4998462;28;20450;-81
2023/02/18 07:59:06;;;;;;;0.50;0.50;;;12.70;99.90;;;;;;5018098;23;20494;-82
2023/02/18 08:01:34;;;;;;;1.03;0.93;;;12.60;99.90;;;;;;5085683;23;20495;-82
2023/02/18 08:04:01;;;;;;;0.40;0.40;;;12.50;99.90;;;;;;4981277;28;20448;-82
2023/02/18 08:06:49;;;;;;;0.60;0.60;;;12.40;99.90;;;;;;4986023;28;20448;-81
2023/02/18 08:09:17;;;;;;;1.23;0.80;;;12.40;99.90;;;;;;4973221;28;20578;-81
2023/02/18 08:11:44;;;;;;;0.70;0.70;;;12.30;99.90;;;;;;4976357;28;20466;-82
2023/02/18 08:14:13;;;;;;;1.07;0.80;;;12.30;99.90;;;;;;4999557;28;20455;-81
2023/02/18 08:16:41;;;;;;;1.03;0.93;;;12.20;99.90;;;;;;4983618;28;20463;-80
2023/02/18 08:19:08;;;;;;;0.60;0.60;;;12.10;99.90;;;;;;4984142;28;20466;-81
2023/02/18 08:21:35;;;;;;;6.70;4.10;;;12.20;99.90;;;;;;4996025;28;20455;-80
2023/02/18 08:24:02;;;;;;;1.27;1.10;;;12.10;99.90;;;;;;4991632;28;20455;-80
2023/02/18 08:26:31;;;;;;;2.40;0.83;;;12.10;99.90;;;;;;5014750;28;20513;-79
2023/02/18 08:28:58;;;;;;;1.73;1.13;;;12.10;99.90;;;;;;5003152;28;20472;-80
2023/02/18 08:31:29;;;;;;;2.80;1.17;;;12.00;99.90;;;;;;4981793;28;20484;-80
2023/02/18 08:33:58;;;;;;;2.27;1.30;;;12.00;99.90;;;;;;4999084;28;21103;-81
2023/02/18 08:36:27;;;;;;;1.30;1.10;;;12.00;99.90;;;;;;4999116;28;20450;-80
2023/02/18 08:38:54;;;;;;;3.43;1.67;;;12.00;99.90;;;;;;4997867;28;20463;-80
2023/02/18 08:41:23;;;;;;;2.43;1.37;;;12.10;99.90;;;;;;4981135;28;20521;-81
2023/02/18 08:43:50;;;;;;;2.77;1.63;;;12.00;99.90;;;;;;5013361;28;20526;-80
2023/02/18 08:46:23;;;;;;;5.90;1.83;;;12.00;99.90;;;;;;4996070;28;20539;-79
2023/02/18 08:49:03;;;;;;;4.23;1.80;;;12.00;99.90;;;;;;4998657;28;20473;-80
2023/02/18 08:51:40;;;;;;;2.00;1.70;;;12.00;99.90;;;;;;4988847;28;20444;-80
2023/02/18 08:54:29;;;;;;;6.13;1.70;;;12.00;99.90;;;;;;5012083;28;20475;-80
2023/02/18 08:57:05;;;;;;;7.90;2.70;;;12.00;99.90;;;;;;4995483;28;20447;-80
2023/02/18 09:00:05;;;;;;;3.77;1.30;;;12.00;99.90;;;;;;5001206;28;20526;-78
2023/02/18 09:02:35;;;;;;;5.83;1.97;;;12.00;99.90;;;;;;4997881;28;20515;-80
2023/02/18 09:05:35;;;;;;;3.47;1.60;;;12.00;99.90;;;;;;5019669;28;20558;-79
2023/02/18 09:08:08;;;;;;;3.93;1.90;;;12.00;99.90;;;;;;4996854;28;20462;-80
2023/02/18 09:10:38;;;;;;;4.97;2.70;;;12.00;99.90;;;;;;5014075;28;20458;-79
2023/02/18 09:13:14;;;;;;;5.10;1.70;;;12.00;99.90;;;;;;4996979;28;20502;-80
2023/02/18 09:15:59;;;;;;;2.70;1.60;;;11.90;99.90;;;;;;5001309;28;20527;-81
2023/02/18 09:18:37;;;;;;;6.47;1.80;;;11.90;99.90;;;;;;4979631;28;21007;-79
2023/02/18 09:21:09;;;;;;;2.60;1.60;;;12.00;99.90;;;;;;4977712;28;21029;-80
2023/02/18 09:23:48;;;;;;;4.57;1.50;;;12.00;99.90;;;;;;4973244;28;20475;-80
2023/02/18 09:26:21;;;;;;;3.80;1.60;;;12.00;99.90;;;;;;4975232;28;20463;-81
2023/02/18 09:28:54;;;;;;;4.97;1.53;;;12.00;99.90;;;;;;4987219;28;20467;-82
2023/02/18 09:31:24;;;;;;;7.27;2.03;;;12.00;99.90;;;;;;4982068;28;20481;-82
2023/02/18 09:34:13;;;;;;;5.53;2.37;;;12.10;99.90;;;;;;5003539;28;20453;-82
2023/02/18 09:36:53;;;;;;;3.77;2.37;;;12.10;99.90;;;;;;5001075;28;20459;-80
2023/02/18 09:39:25;;;;;;;3.40;1.60;;;12.10;99.90;;;;;;4987777;28;20529;-83
2023/02/18 09:42:04;;;;;;;3.80;1.73;;;12.10;99.90;;;;;;4985751;28;20482;-82
2023/02/18 09:45:08;;;;;;;5.30;2.30;;;12.20;99.90;;;;;;4989153;28;20471;-81
2023/02/18 09:48:04;;;;;;;3.30;1.50;;;12.10;99.90;;;;;;4995775;28;21120;-81
2023/02/18 09:50:36;;;;;;;8.77;4.63;;;12.20;99.90;;;;;;4992215;28;20858;-81
2023/02/18 09:53:06;;;;;;;5.00;1.90;;;12.20;99.90;;;;;;4979292;28;20475;-80
2023/02/18 09:55:45;;;;;;;4.77;1.33;;;12.10;99.90;;;;;;4982512;28;20455;-82
2023/02/18 09:58:22;;;;;;;2.73;1.50;;;12.10;99.90;;;;;;4982885;28;20487;-80
2023/02/18 10:01:35;;;;;;;7.83;2.30;;;12.30;99.90;;;;;;4983217;28;20451;-81
2023/02/18 10:04:53;;;;;;;3.43;1.80;;;12.20;99.90;;;;;;4987907;28;20542;-81
2023/02/18 10:10:48;;;;;;;6.00;1.97;;;12.20;99.90;;;;;;4645907;26;20586;-81
2023/02/18 10:13:52;;;;;;;6.90;1.70;;;12.30;99.90;;;;;;5016586;28;20473;-80
2023/02/18 10:16:29;;;;;;;7.33;1.90;;;12.20;99.90;;;;;;5003778;28;20514;-82
2023/02/18 10:19:14;;;;;;;3.03;1.87;;;12.30;99.90;;;;;;5000620;28;20538;-81
2023/02/18 10:22:13;;;;;;;4.53;1.50;;;12.30;99.90;;;;;;4994780;28;20545;-81
2023/02/18 10:25:49;;;;;;;;;;;;;;;;;;;;;
2023/02/18 10:28:52;;;;;;;3.00;2.63;;;12.60;99.90;;;;;;4958551;29;20525;-81
2023/02/18 10:31:44;;;;;;;3.40;1.73;;;12.50;99.90;;;;;;4959866;28;20500;-81
2023/02/18 10:34:51;;;;;;;6.80;2.60;;;12.40;99.90;;;;;;4903125;29;20439;-80
2023/02/18 10:37:53;;;;;;;3.87;2.47;;;12.40;99.90;;;;;;4899323;29;20456;-80
2023/02/18 10:41:02;;;;;;;4.83;1.47;;;12.40;99.90;;;;;;4889583;29;20568;-80
2023/02/18 10:44:38;;;;;;;5.63;2.30;;;12.30;99.90;;;;;;4853979;29;20467;-79
2023/02/18 10:47:52;;;;;;;3.53;2.37;;;12.30;99.90;;;;;;4847753;29;20488;-81
2023/02/18 10:50:31;;;;;;;3.63;2.10;;;12.30;99.90;;;;;;4862470;29;20488;-80
2023/02/18 10:53:44;;;;;;;2.93;1.90;;;12.30;99.90;;;;;;4919896;29;20462;-80
2023/02/18 10:56:50;;;;;;;3.00;2.10;;;12.20;99.90;;;;;;4940819;29;20499;-81
2023/02/18 11:00:09;;;;;;;3.77;2.60;;;12.30;99.90;;;;;;4926861;29;20450;-79
2023/02/18 11:03:08;;;;;;;4.50;2.57;;;12.30;99.90;;;;;;4942529;29;20500;-84
2023/02/18 11:06:06;;;;;;;5.30;2.87;;;12.30;99.90;;;;;;4926892;29;20469;-81
2023/02/18 11:09:08;;;;;;;4.60;2.20;;;12.30;99.90;;;;;;4924122;29;20881;-81
2023/02/18 11:12:26;;;;;;;4.63;2.37;;;12.30;99.90;;;;;;4937731;29;20479;-81
2023/02/18 11:15:54;;;;;;;2.70;2.23;;;12.30;99.90;;;;;;4892306;29;20541;-81
2023/02/18 11:19:29;;;;;;;3.43;2.27;;;12.20;99.90;;;;;;4933627;29;20438;-82
2023/02/18 11:22:43;;;;;;;4.50;2.63;;;12.20;99.90;;;;;;5016612;23;20491;-81
2023/02/18 11:25:37;;;;;;;4.23;2.50;;;12.10;99.90;;;;;;5000900;28;20883;-80
2023/02/18 11:28:19;;;;;;;7.23;2.40;;;12.10;99.90;;;;;;4992992;28;20463;-82
2023/02/18 11:31:00;;;;;;;3.03;2.83;;;12.20;99.90;;;;;;5014143;28;20570;-82
2023/02/18 11:33:52;;;;;;;3.30;2.83;;;12.20;99.90;;;;;;4981049;28;20469;-81
2023/02/18 11:36:31;;;;;;;2.70;2.47;;;12.20;99.90;;;;;;4979408;28;20447;-81
2023/02/18 11:39:06;;;;;;;3.50;2.63;;;12.40;99.90;;;;;;4980547;28;20989;-80
2023/02/18 11:41:44;;;;;;;2.37;2.00;;;12.30;99.90;;;;;;4979669;28;20565;-81
2023/02/18 11:44:35;;;;;;;1.70;1.60;;;12.30;99.90;;;;;;4953137;28;20477;-81
2023/02/18 11:47:32;;;;;;;2.13;1.83;;;12.10;99.90;;;;;;4954010;28;20453;-81
2023/02/18 11:50:21;;;;;;;2.40;1.70;;;12.10;99.90;;;;;;4948303;28;21273;-79
2023/02/18 11:53:32;;;;;;;1.77;1.67;;;12.00;99.90;;;;;;4967065;28;20528;-80
2023/02/18 11:56:23;;;;;;;2.23;1.80;;;11.90;99.90;;;;;;4944785;28;20459;-79
2023/02/18 11:59:05;;;;;;;3.23;2.00;;;11.90;99.90;;;;;;4954335;28;20457;-79
2023/02/18 12:02:13;;;;;;;2.53;2.33;;;12.00;99.90;;;;;;4962570;28;20847;-82
2023/02/18 12:05:38;;;;;;;2.93;1.70;;;11.90;99.90;;;;;;4961803;28;20469;-80
2023/02/18 12:08:16;;;;;;;2.03;1.83;;;12.00;99.90;;;;;;4947295;28;20502;-81
2023/02/18 12:11:22;;;;;;;2.13;1.80;;;12.00;99.90;;;;;;4966687;28;20485;-80
2023/02/18 12:17:17;;;;;;;2.10;2.00;;;12.00;99.90;;;;;;4970417;28;20456;-82
2023/02/18 12:20:38;;;;;;;2.83;1.90;;;12.00;99.90;;;;;;4957110;28;20542;-82
2023/02/18 12:23:14;;;;;;;2.57;1.80;;;12.00;99.90;;;;;;4925204;29;20480;-81
2023/02/18 12:26:06;;;;;;;1.87;1.67;;;12.00;99.90;;;;;;4973656;28;20495;-81
2023/02/18 12:28:58;;;;;;;1.90;1.60;;;12.00;99.90;;;;;;4982386;28;20444;-81
2023/02/18 12:32:14;;;;;;;1.80;1.70;;;11.90;99.90;;;;;;4977513;28;20506;-80
2023/02/18 12:35:12;;;;;;;1.83;1.70;;;11.90;99.90;;;;;;4988051;28;20488;-82
2023/02/18 12:38:09;;;;;;;2.50;1.60;;;11.90;99.90;;;;;;4980439;28;20444;-80
2023/02/18 12:41:30;;;;;;;1.80;1.70;;;11.90;99.90;;;;;;4981437;28;20456;-81
2023/02/18 12:44:21;;;;;;;2.60;1.63;;;11.90;99.90;;;;;;4958085;28;20482;-80
2023/02/18 12:47:42;;;;;;;1.80;1.70;;;11.90;99.90;;;;;;4952809;28;20461;-81
2023/02/18 12:50:56;;;;;;;2.00;1.40;;;12.00;99.90;;;;;;4940177;28;20476;-82
2023/02/18 12:54:28;;;;;;;2.00;1.77;;;12.00;99.90;;;;;;4939393;28;20488;-79
2023/02/18 12:57:45;;;;;;;1.90;1.60;;;12.10;99.90;;;;;;4990134;28;20536;-82
2023/02/18 13:00:51;;;;;;;1.70;1.60;;;12.10;99.90;;;;;;4983876;28;20466;-82
2023/02/18 13:04:07;;;;;;;1.60;1.50;;;12.10;99.90;;;;;;4981523;28;20526;-83
2023/02/18 13:07:46;;;;;;;2.07;1.43;;;12.10;99.90;;;;;;4984966;28;20464;-82
2023/02/18 13:10:51;;;;;;;1.43;1.33;;;12.20;99.90;;;;;;4979781;28;20471;-82
2023/02/18 13:14:29;;;;;;;2.50;1.70;;;12.20;99.90;;;;;;4980874;28;20472;-81
2023/02/18 13:17:28;;;;;;;2.60;1.40;;;12.10;99.90;;;;;;4962053;29;20449;-83
2023/02/18 13:20:31;;;;;;;;;;;;;;;;;;;;;
2023/02/18 13:24:07;;;;;;;2.10;1.67;;;12.00;99.90;;;;;;4980495;28;21019;-79
2023/02/18 13:27:11;;;;;;;1.43;1.33;;;12.00;99.90;;;;;;4897643;29;20451;-80
2023/02/18 13:30:11;;;;;;;1.57;1.47;;;12.00;99.90;;;;;;4886057;29;20471;-80
2023/02/18 13:34:12;;;;;;;;;;;;;;;;;;;;;
2023/02/18 13:37:24;;;;;;;3.13;1.80;;;12.00;99.90;;;;;;4827577;29;20474;-80
2023/02/18 13:44:25;;;;;;;2.17;1.60;;;12.10;99.90;;;;;;4906469;29;20481;-79
2023/02/18 13:47:59;;;;;;;;;;;;;;;;;;;;;
2023/02/18 13:59:45;;;;;;;1.60;1.50;;;12.10;99.90;;;;;;3298424;26;20485;-80
2023/02/18 14:06:56;;;;;;;2.63;1.60;;;12.00;99.90;;;;;;5003006;28;20427;-80
2023/02/18 14:09:52;;;;;;;1.40;1.30;;;12.10;99.90;;;;;;4994800;28;20550;-82
2023/02/18 14:13:02;;;;;;;1.57;1.43;;;12.10;99.90;;;;;;4993576;28;20478;-81
2023/02/18 14:16:07;;;;;;;1.97;1.53;;;12.10;99.90;;;;;;4990386;28;20451;-82
2023/02/18 14:19:09;;;;;;;2.37;1.90;;;12.10;99.90;;;;;;4984494;28;20452;-80
2023/02/18 14:22:21;;;;;;;1.83;1.73;;;12.00;99.90;;;;;;4982034;28;20460;-81
2023/02/18 14:26:11;;;;;;;1.87;1.77;;;12.10;99.90;;;;;;4981964;28;20594;-80